Terminal Aerodrome Forecast
Issued by NWS

Home | Current Version | Previous Version | Text Only | Print | Product List | Glossary On
Versions: 1 2 3 4 5 6 7 8 9 10 11 12 13 14 15 16 17 18 19 20 21 22 23 24 25 26 27
000
FTUS43 KDVN 241729
TAFBRL
TAF
KBRL 241729Z 2418/2518 15013KT P6SM OVC050
     FM250200 12012KT P6SM BKN040
     FM250500 10012KT 5SM -RA BR OVC020
     FM251100 08012KT 3SM RA BR BKN008 OVC012=

USA.gov is the U.S. government's official web portal to all federal, state and local government web resources and services.